Upstream stations:
Downstream station:
SHEF ID: WANO2 Cimarron River near Waynoka, OK
STATION TYPE:
Regulating: Stage = 9.00, Flow = 4032
PRECIP STAGE RIV-FLOW BAT-LOAD
in ft cfs volt
Ccp-Rev Ccp-Rev Ccp-Rev Ccp-Rev
(US/Central)
02/02 00:00 0.00 5.62 31 12.57
02/02 01:00 0.00 5.67 39 12.49
02/02 02:00 0.00 5.67 39 12.49
02/02 03:00 0.00 5.63 32 12.49
02/02 04:00 0.00 5.66 37 12.49
02/02 05:00 0.00 5.68 41 12.49
02/02 06:00 0.00 5.69 42 12.41
02/02 07:00 0.00 5.69 42 12.41
02/02 08:00 0.00 5.68 41 12.41
02/02 09:00 0.00 5.69 42 12.41
02/02 10:00 0.00 5.69 42 12.57
02/02 11:00 0.00 5.66 37 12.89
02/02 12:00 0.00 5.68 41 13.21
02/02 13:00 0.00 5.68 41 13.37
02/02 14:00 0.00 5.68 41 13.53
02/02 15:00 0.00 5.69 42 13.44
02/02 16:00 0.00 5.68 41 13.44
02/02 17:00 0.00 5.69 42 13.37
02/02 18:00 0.00 5.69 42 13.21
02/02 19:00 0.00 5.71 45 12.97
02/02 20:00 0.00 5.70 44 12.81
02/02 21:00 0.00 5.70 44 12.73
02/02 22:00 0.00 5.70 46 12.73
02/02 23:00 0.00 5.70 46 12.65